createdAt,value
2022-08-30T00:03:04.686Z,1.90
2022-08-30T00:08:08.132Z,2.15
2022-08-30T00:13:13.741Z,2.47
2022-08-30T00:18:18.399Z,2.13
2022-08-30T00:23:21.811Z,2.05
2022-08-30T00:28:26.479Z,2.08
2022-08-30T00:33:30.516Z,2.30
2022-08-30T00:38:34.421Z,2.00
2022-08-30T00:43:39.115Z,2.10
2022-08-30T00:48:46.216Z,2.00
2022-08-30T00:53:53.834Z,2.00
2022-08-30T00:59:01.250Z,2.20
2022-08-30T01:04:08.781Z,2.33
2022-08-30T01:09:12.744Z,1.80
2022-08-30T01:14:18.318Z,2.13
2022-08-30T01:19:34.707Z,1.90
2022-08-30T01:24:39.905Z,1.90
2022-08-30T01:29:45.226Z,1.92
2022-08-30T01:34:49.054Z,2.10
2022-08-30T01:39:53.886Z,1.70
2022-08-30T01:44:57.260Z,2.30
2022-08-30T01:50:00.816Z,2.00
2022-08-30T01:55:06.738Z,1.92
2022-08-30T02:00:11.834Z,1.90
2022-08-30T02:05:16.122Z,1.58
2022-08-30T02:10:21.195Z,2.03
2022-08-30T02:15:24.487Z,2.05
2022-08-30T02:20:28.221Z,1.80
2022-08-30T02:25:32.853Z,1.90
2022-08-30T02:30:36.178Z,2.00
2022-08-30T02:35:39.670Z,1.88
2022-08-30T02:40:45.274Z,1.85
2022-08-30T02:45:48.819Z,2.10
2022-08-30T02:50:53.675Z,2.20
2022-08-30T02:55:58.930Z,1.88
2022-08-30T03:01:03.595Z,1.90
2022-08-30T03:06:07.228Z,2.10
2022-08-30T03:11:13.828Z,2.00
2022-08-30T03:16:17.208Z,3.10
2022-08-30T03:21:20.538Z,1.83
2022-08-30T03:26:25.273Z,1.92
2022-08-30T03:31:28.606Z,2.40
2022-08-30T03:36:32.024Z,1.80
2022-08-30T03:41:36.864Z,2.13
2022-08-30T03:46:40.337Z,2.35
2022-08-30T03:51:43.618Z,2.10
2022-08-30T03:56:48.345Z,2.70
2022-08-30T04:01:51.944Z,2.78
2022-08-30T04:06:55.597Z,2.53
2022-08-30T04:12:00.936Z,2.40
2022-08-30T04:17:04.772Z,2.20
2022-08-30T04:22:08.049Z,2.50
2022-08-30T04:27:13.473Z,2.00
2022-08-30T04:32:18.386Z,2.38
2022-08-30T04:37:21.938Z,2.05
2022-08-30T04:42:27.119Z,2.20
2022-08-30T04:47:30.362Z,2.70
2022-08-30T04:52:33.745Z,2.45
2022-08-30T04:57:40.310Z,2.00
2022-08-30T05:02:44.532Z,2.30
2022-08-30T05:07:47.970Z,2.35
2022-08-30T05:12:52.580Z,2.13
2022-08-30T05:17:55.786Z,1.85
2022-08-30T05:22:59.077Z,1.98
2022-08-30T05:28:04.114Z,2.08
2022-08-30T05:33:07.403Z,2.10
2022-08-30T05:38:10.694Z,2.00
2022-08-30T05:43:15.711Z,1.88
2022-08-30T05:48:18.918Z,2.00
2022-08-30T05:53:22.184Z,1.85
2022-08-30T05:58:26.957Z,2.00
2022-08-30T06:03:32.495Z,1.90
2022-08-30T06:08:35.741Z,1.85
2022-08-30T06:13:40.745Z,2.00
2022-08-30T06:18:44.752Z,2.10
2022-08-30T06:23:48.744Z,1.90
2022-08-30T06:28:53.328Z,2.08
2022-08-30T06:33:56.744Z,1.92
2022-08-30T06:39:00.720Z,2.25
2022-08-30T06:44:06.875Z,2.20
2022-08-30T06:49:10.174Z,1.90
2022-08-30T06:54:13.778Z,2.50
2022-08-30T06:59:18.714Z,1.98
2022-08-30T07:04:22.006Z,2.10
2022-08-30T07:09:25.521Z,1.77
2022-08-30T07:14:30.509Z,1.80
2022-08-30T07:19:33.762Z,1.55
2022-08-30T07:24:37.552Z,1.90
2022-08-30T07:29:42.515Z,1.95
2022-08-30T07:34:45.864Z,1.92
2022-08-30T07:39:50.653Z,1.73
2022-08-30T07:44:56.935Z,1.85
2022-08-30T07:50:00.952Z,2.03
2022-08-30T07:55:05.890Z,1.73
2022-08-30T08:00:11.874Z,1.70
2022-08-30T08:05:18.160Z,2.03
2022-08-30T08:10:22.736Z,1.60
2022-08-30T08:15:27.945Z,1.80
2022-08-30T08:20:31.478Z,1.92
2022-08-30T08:25:35.488Z,1.70
2022-08-30T08:30:41.581Z,1.90
2022-08-30T08:35:46.817Z,1.55
2022-08-30T08:41:00.869Z,1.55
2022-08-30T08:46:12.156Z,1.40
2022-08-30T08:51:34.770Z,1.35
2022-08-30T08:56:38.545Z,1.55
2022-08-30T09:01:43.200Z,1.40
2022-08-30T09:06:53.424Z,1.25
2022-08-30T09:11:56.844Z,1.73
2022-08-30T09:17:03.538Z,1.48
2022-08-30T09:22:26.713Z,1.23
2022-08-30T09:27:34.824Z,1.60
2022-08-30T09:32:43.072Z,1.40
2022-08-30T09:37:52.614Z,1.30
2022-08-30T09:43:11.960Z,1.40
2022-08-30T09:48:33.043Z,1.20
2022-08-30T09:53:40.711Z,1.55
2022-08-30T09:59:02.760Z,1.55
2022-08-30T10:04:15.946Z,1.30
2022-08-30T10:09:26.390Z,1.67
2022-08-30T10:14:52.757Z,1.70
2022-08-30T10:20:08.775Z,1.40
2022-08-30T10:25:17.546Z,1.35
2022-08-30T10:30:20.972Z,1.70
2022-08-30T10:35:38.607Z,1.70
2022-08-30T10:41:06.617Z,1.40
2022-08-30T10:46:15.487Z,1.30
2022-08-30T10:51:30.125Z,1.40
2022-08-30T10:56:35.373Z,1.30
2022-08-30T11:01:56.417Z,1.60
2022-08-30T11:07:12.632Z,1.38
2022-08-30T11:12:33.002Z,1.40
2022-08-30T11:17:41.291Z,1.40
2022-08-30T11:23:21.586Z,1.38
2022-08-30T11:28:58.513Z,1.48
2022-08-30T11:34:02.188Z,1.15
2022-08-30T11:39:08.684Z,1.45
2022-08-30T11:44:31.425Z,1.20
2022-08-30T11:49:59.106Z,1.15
2022-08-30T11:55:46.250Z,1.42
2022-08-30T12:01:20.641Z,1.15
2022-08-30T12:06:50.131Z,1.20
2022-08-30T12:11:59.655Z,1.27
2022-08-30T12:17:22.687Z,1.48
2022-08-30T12:22:30.630Z,1.20
2022-08-30T12:27:35.210Z,1.60
2022-08-30T12:32:47.466Z,1.23
2022-08-30T12:38:00.544Z,1.80
2022-08-30T12:43:07.785Z,1.15
2022-08-30T12:48:14.791Z,1.23
2022-08-30T12:53:26.543Z,1.83
2022-08-30T12:58:40.320Z,1.50
2022-08-30T13:03:43.599Z,1.38
2022-08-30T13:08:53.510Z,1.50
2022-08-30T13:14:19.518Z,1.40
2022-08-30T13:19:33.202Z,1.40
2022-08-30T13:24:36.490Z,1.40
2022-08-30T13:29:41.127Z,1.30
2022-08-30T13:34:46.273Z,1.23
2022-08-30T13:39:49.755Z,1.33
2022-08-30T13:44:55.516Z,1.50
2022-08-30T13:49:58.751Z,1.52
2022-08-30T13:55:02.280Z,1.38
2022-08-30T14:00:14.565Z,1.30
2022-08-30T14:05:47.050Z,1.42
2022-08-30T14:10:47.253Z,1.20
2022-08-30T14:16:26.626Z,1.25
2022-08-30T14:21:16.761Z,1.80
2022-08-30T14:26:24.471Z,1.35
2022-08-30T14:31:32.889Z,1.25
2022-08-30T14:36:38.552Z,1.33
2022-08-30T14:41:44.947Z,1.30
2022-08-30T14:46:51.191Z,1.30
2022-08-30T14:51:55.509Z,1.67
2022-08-30T14:56:59.303Z,1.35
2022-08-30T15:02:04.141Z,1.45
2022-08-30T15:07:10.623Z,1.40
2022-08-30T15:12:16.923Z,1.20
2022-08-30T15:17:21.573Z,1.70
2022-08-30T15:22:24.992Z,1.80
2022-08-30T15:27:28.650Z,1.70
2022-08-30T15:32:34.107Z,1.63
2022-08-30T15:37:38.459Z,1.65
2022-08-30T15:42:42.266Z,2.10
2022-08-30T15:47:47.016Z,1.48
2022-08-30T15:52:52.067Z,1.23
2022-08-30T15:57:55.258Z,1.30
2022-08-30T16:03:00.183Z,1.27
2022-08-30T16:08:03.798Z,1.15
2022-08-30T16:13:07.053Z,1.25
2022-08-30T16:18:13.490Z,1.95
2022-08-30T16:23:16.798Z,1.45
2022-08-30T16:28:20.200Z,1.70
2022-08-30T16:33:26.069Z,1.30
2022-08-30T16:38:30.004Z,1.55
2022-08-30T16:43:33.270Z,1.50
2022-08-30T16:48:39.409Z,1.60
2022-08-30T16:53:45.339Z,1.80
2022-08-30T16:58:51.279Z,1.67
2022-08-30T17:03:58.876Z,2.05
2022-08-30T17:09:02.288Z,2.20
2022-08-30T17:14:05.962Z,1.83
2022-08-30T17:19:12.928Z,1.52
2022-08-30T17:24:16.218Z,2.17
2022-08-30T17:29:20.114Z,1.40
2022-08-30T17:34:28.551Z,1.67
2022-08-30T17:39:32.136Z,1.67
2022-08-30T17:44:38.051Z,1.80
2022-08-30T17:49:47.301Z,1.73
2022-08-30T17:54:53.471Z,1.70
2022-08-30T17:59:57.403Z,1.55
2022-08-30T18:05:03.211Z,1.85
2022-08-30T18:10:07.331Z,1.60
2022-08-30T18:15:12.470Z,1.70
2022-08-30T18:20:17.545Z,2.05
2022-08-30T18:25:21.121Z,1.90
2022-08-30T18:30:24.594Z,2.03
2022-08-30T18:35:29.379Z,1.88
2022-08-30T18:40:32.753Z,1.83
2022-08-30T18:45:38.697Z,1.98
2022-08-30T18:50:44.271Z,1.95
2022-08-30T18:55:48.485Z,1.77
2022-08-30T19:00:51.899Z,1.95
2022-08-30T19:05:58.278Z,1.80
2022-08-30T19:11:04.738Z,1.80
2022-08-30T19:16:12.163Z,1.75
2022-08-30T19:21:18.238Z,2.08
2022-08-30T19:26:24.288Z,1.85
2022-08-30T19:31:30.929Z,2.03
2022-08-30T19:36:36.767Z,1.83
2022-08-30T19:41:40.276Z,1.90
2022-08-30T19:46:43.671Z,1.58
2022-08-30T19:51:48.310Z,2.35
2022-08-30T19:56:51.949Z,3.00
2022-08-30T20:01:55.578Z,2.20
2022-08-30T20:07:00.413Z,2.08
2022-08-30T20:12:05.280Z,2.10
2022-08-30T20:17:11.680Z,2.38
2022-08-30T20:22:16.716Z,2.13
2022-08-30T20:27:20.026Z,2.80
2022-08-30T20:32:24.640Z,2.10
2022-08-30T20:37:29.788Z,2.65
2022-08-30T20:42:33.105Z,2.20
2022-08-30T20:47:38.580Z,2.40
2022-08-30T20:52:43.870Z,2.05
2022-08-30T20:57:47.482Z,2.38
2022-08-30T21:02:51.655Z,2.58
2022-08-30T21:07:56.287Z,2.45
2022-08-30T21:12:59.637Z,2.10
2022-08-30T21:18:03.231Z,2.55
2022-08-30T21:23:07.806Z,2.40
2022-08-30T21:28:11.623Z,1.88
2022-08-30T21:33:14.905Z,2.17
2022-08-30T21:38:20.762Z,2.40
2022-08-30T21:43:24.016Z,2.78
2022-08-30T21:48:27.567Z,2.30
2022-08-30T21:53:32.177Z,2.60
2022-08-30T21:58:35.703Z,2.20
2022-08-30T22:03:39.662Z,1.90
2022-08-30T22:08:46.663Z,1.80
2022-08-30T22:13:54.220Z,2.20
2022-08-30T22:18:57.778Z,1.80
2022-08-30T22:24:03.666Z,2.00
2022-08-30T22:29:08.677Z,1.70
2022-08-30T22:34:12.012Z,1.52
2022-08-30T22:39:16.668Z,1.60
2022-08-30T22:44:20.026Z,1.80
2022-08-30T22:49:23.298Z,2.10
2022-08-30T22:54:27.932Z,1.67
2022-08-30T22:59:32.357Z,1.90
2022-08-30T23:04:38.229Z,1.50
2022-08-30T23:09:42.868Z,1.63
2022-08-30T23:14:46.160Z,2.15
2022-08-30T23:19:49.343Z,1.90
2022-08-30T23:25:15.948Z,1.85
2022-08-30T23:30:36.685Z,1.70
2022-08-30T23:35:57.741Z,1.85
2022-08-30T23:41:19.983Z,1.95
2022-08-30T23:46:40.773Z,1.60
2022-08-30T23:52:01.133Z,2.30
2022-08-30T23:57:24.004Z,1.92
